sensor_id;sensor_type;location;lat;lon;timestamp;P1;durP1;ratioP1;P2;durP2;ratioP2
21503;SDS011;10913;51.992;9.228;2023-02-11T00:03:46;61.05;;;37.47;;
21503;SDS011;10913;51.992;9.228;2023-02-11T00:06:11;61.40;;;36.05;;
21503;SDS011;10913;51.992;9.228;2023-02-11T00:08:37;58.45;;;34.45;;
21503;SDS011;10913;51.992;9.228;2023-02-11T00:11:03;65.30;;;35.80;;
21503;SDS011;10913;51.992;9.228;2023-02-11T00:13:29;61.97;;;36.75;;
21503;SDS011;10913;51.992;9.228;2023-02-11T00:15:54;51.28;;;30.35;;
21503;SDS011;10913;51.992;9.228;2023-02-11T00:18:20;60.88;;;35.47;;
21503;SDS011;10913;51.992;9.228;2023-02-11T00:20:45;57.97;;;35.05;;
21503;SDS011;10913;51.992;9.228;2023-02-11T00:23:11;60.05;;;35.15;;
21503;SDS011;10913;51.992;9.228;2023-02-11T00:25:40;62.28;;;37.20;;
21503;SDS011;10913;51.992;9.228;2023-02-11T00:28:06;68.35;;;38.00;;
21503;SDS011;10913;51.992;9.228;2023-02-11T00:30:32;61.92;;;37.85;;
21503;SDS011;10913;51.992;9.228;2023-02-11T00:32:57;61.92;;;37.80;;
21503;SDS011;10913;51.992;9.228;2023-02-11T00:35:22;61.63;;;36.00;;
21503;SDS011;10913;51.992;9.228;2023-02-11T00:37:47;64.57;;;38.35;;
21503;SDS011;10913;51.992;9.228;2023-02-11T00:40:13;54.15;;;31.17;;
21503;SDS011;10913;51.992;9.228;2023-02-11T00:42:40;66.63;;;38.53;;
21503;SDS011;10913;51.992;9.228;2023-02-11T00:45:06;60.67;;;36.83;;
21503;SDS011;10913;51.992;9.228;2023-02-11T00:47:33;67.78;;;38.83;;
21503;SDS011;10913;51.992;9.228;2023-02-11T00:49:59;67.82;;;38.50;;
21503;SDS011;10913;51.992;9.228;2023-02-11T00:52:25;64.28;;;36.95;;
21503;SDS011;10913;51.992;9.228;2023-02-11T00:54:50;62.10;;;37.55;;
21503;SDS011;10913;51.992;9.228;2023-02-11T00:57:15;63.45;;;37.78;;
21503;SDS011;10913;51.992;9.228;2023-02-11T00:59:41;56.05;;;32.97;;
21503;SDS011;10913;51.992;9.228;2023-02-11T01:02:06;61.33;;;36.33;;
21503;SDS011;10913;51.992;9.228;2023-02-11T01:04:31;61.60;;;36.38;;
21503;SDS011;10913;51.992;9.228;2023-02-11T01:06:57;61.97;;;36.90;;
21503;SDS011;10913;51.992;9.228;2023-02-11T01:09:22;60.55;;;37.83;;
21503;SDS011;10913;51.992;9.228;2023-02-11T01:11:47;64.47;;;37.90;;
21503;SDS011;10913;51.992;9.228;2023-02-11T01:14:13;64.55;;;38.33;;
21503;SDS011;10913;51.992;9.228;2023-02-11T01:16:38;62.83;;;36.85;;
21503;SDS011;10913;51.992;9.228;2023-02-11T01:19:04;63.72;;;36.38;;
21503;SDS011;10913;51.992;9.228;2023-02-11T01:21:29;58.35;;;34.45;;
21503;SDS011;10913;51.992;9.228;2023-02-11T01:23:55;60.20;;;35.65;;
21503;SDS011;10913;51.992;9.228;2023-02-11T01:26:20;65.15;;;38.42;;
21503;SDS011;10913;51.992;9.228;2023-02-11T01:28:46;63.50;;;36.78;;
21503;SDS011;10913;51.992;9.228;2023-02-11T01:31:11;60.28;;;36.05;;
21503;SDS011;10913;51.992;9.228;2023-02-11T01:33:37;62.20;;;38.00;;
21503;SDS011;10913;51.992;9.228;2023-02-11T01:36:03;68.53;;;39.88;;
21503;SDS011;10913;51.992;9.228;2023-02-11T01:38:29;60.17;;;36.83;;
21503;SDS011;10913;51.992;9.228;2023-02-11T01:40:56;60.85;;;36.22;;
21503;SDS011;10913;51.992;9.228;2023-02-11T01:43:25;61.15;;;36.10;;
21503;SDS011;10913;51.992;9.228;2023-02-11T01:45:55;66.40;;;39.17;;
21503;SDS011;10913;51.992;9.228;2023-02-11T01:48:46;64.97;;;39.47;;
21503;SDS011;10913;51.992;9.228;2023-02-11T01:51:18;61.28;;;35.70;;
21503;SDS011;10913;51.992;9.228;2023-02-11T01:53:47;59.92;;;37.13;;
21503;SDS011;10913;51.992;9.228;2023-02-11T01:56:32;63.10;;;37.92;;
21503;SDS011;10913;51.992;9.228;2023-02-11T01:59:21;52.45;;;33.30;;
21503;SDS011;10913;51.992;9.228;2023-02-11T02:01:52;58.00;;;36.30;;
21503;SDS011;10913;51.992;9.228;2023-02-11T02:04:23;57.80;;;35.83;;
21503;SDS011;10913;51.992;9.228;2023-02-11T02:06:58;54.05;;;31.83;;
21503;SDS011;10913;51.992;9.228;2023-02-11T02:09:27;52.92;;;32.42;;
21503;SDS011;10913;51.992;9.228;2023-02-11T02:11:58;55.97;;;35.55;;
21503;SDS011;10913;51.992;9.228;2023-02-11T02:14:23;50.30;;;32.05;;
21503;SDS011;10913;51.992;9.228;2023-02-11T02:16:50;51.92;;;32.03;;
21503;SDS011;10913;51.992;9.228;2023-02-11T02:24:36;46.13;;;31.40;;
21503;SDS011;10913;51.992;9.228;2023-02-11T02:35:57;54.40;;;35.90;;
21503;SDS011;10913;51.992;9.228;2023-02-11T02:38:35;55.40;;;35.42;;
21503;SDS011;10913;51.992;9.228;2023-02-11T02:43:37;54.58;;;34.75;;
21503;SDS011;10913;51.992;9.228;2023-02-11T02:48:54;58.20;;;37.63;;
21503;SDS011;10913;51.992;9.228;2023-02-11T03:04:56;54.38;;;34.40;;
21503;SDS011;10913;51.992;9.228;2023-02-11T03:10:18;64.57;;;39.08;;
21503;SDS011;10913;51.992;9.228;2023-02-11T03:12:49;63.35;;;38.97;;
21503;SDS011;10913;51.992;9.228;2023-02-11T03:15:17;71.18;;;42.60;;
21503;SDS011;10913;51.992;9.228;2023-02-11T03:17:46;73.53;;;43.28;;
21503;SDS011;10913;51.992;9.228;2023-02-11T03:20:15;71.40;;;41.13;;
21503;SDS011;10913;51.992;9.228;2023-02-11T03:22:47;65.07;;;40.55;;
21503;SDS011;10913;51.992;9.228;2023-02-11T03:25:27;63.72;;;39.30;;
21503;SDS011;10913;51.992;9.228;2023-02-11T03:27:58;76.82;;;44.50;;
21503;SDS011;10913;51.992;9.228;2023-02-11T03:30:42;66.22;;;38.90;;
21503;SDS011;10913;51.992;9.228;2023-02-11T03:33:14;60.30;;;35.90;;
21503;SDS011;10913;51.992;9.228;2023-02-11T03:35:49;65.97;;;39.97;;
21503;SDS011;10913;51.992;9.228;2023-02-11T03:38:24;65.55;;;40.28;;
21503;SDS011;10913;51.992;9.228;2023-02-11T03:40:55;68.70;;;39.72;;
21503;SDS011;10913;51.992;9.228;2023-02-11T03:43:41;60.33;;;38.00;;
21503;SDS011;10913;51.992;9.228;2023-02-11T03:46:10;63.40;;;38.90;;
21503;SDS011;10913;51.992;9.228;2023-02-11T03:48:39;56.20;;;36.15;;
21503;SDS011;10913;51.992;9.228;2023-02-11T03:51:09;64.55;;;38.08;;
21503;SDS011;10913;51.992;9.228;2023-02-11T03:53:36;56.25;;;36.45;;
21503;SDS011;10913;51.992;9.228;2023-02-11T03:56:05;56.65;;;36.78;;
21503;SDS011;10913;51.992;9.228;2023-02-11T03:58:34;58.78;;;36.40;;
21503;SDS011;10913;51.992;9.228;2023-02-11T04:00:59;52.53;;;33.70;;
21503;SDS011;10913;51.992;9.228;2023-02-11T04:03:26;51.42;;;33.65;;
21503;SDS011;10913;51.992;9.228;2023-02-11T04:05:52;53.45;;;34.22;;
21503;SDS011;10913;51.992;9.228;2023-02-11T04:08:18;55.45;;;35.83;;
21503;SDS011;10913;51.992;9.228;2023-02-11T04:10:46;57.83;;;36.45;;
21503;SDS011;10913;51.992;9.228;2023-02-11T04:13:11;53.22;;;34.55;;
21503;SDS011;10913;51.992;9.228;2023-02-11T04:15:36;52.95;;;36.58;;
21503;SDS011;10913;51.992;9.228;2023-02-11T04:18:02;49.08;;;31.85;;
21503;SDS011;10913;51.992;9.228;2023-02-11T04:20:28;53.28;;;33.38;;
21503;SDS011;10913;51.992;9.228;2023-02-11T04:22:53;47.60;;;32.53;;
21503;SDS011;10913;51.992;9.228;2023-02-11T04:25:19;46.80;;;31.27;;
21503;SDS011;10913;51.992;9.228;2023-02-11T04:27:44;41.90;;;28.08;;
21503;SDS011;10913;51.992;9.228;2023-02-11T04:30:09;51.97;;;33.50;;
21503;SDS011;10913;51.992;9.228;2023-02-11T04:32:35;49.08;;;31.63;;
21503;SDS011;10913;51.992;9.228;2023-02-11T04:35:01;44.45;;;30.83;;
21503;SDS011;10913;51.992;9.228;2023-02-11T04:37:27;50.17;;;32.97;;
21503;SDS011;10913;51.992;9.228;2023-02-11T04:39:52;47.35;;;31.33;;
21503;SDS011;10913;51.992;9.228;2023-02-11T04:42:17;49.45;;;32.42;;
21503;SDS011;10913;51.992;9.228;2023-02-11T04:44:42;43.65;;;28.17;;
21503;SDS011;10913;51.992;9.228;2023-02-11T04:47:08;44.28;;;29.55;;
21503;SDS011;10913;51.992;9.228;2023-02-11T04:49:33;48.75;;;31.88;;
21503;SDS011;10913;51.992;9.228;2023-02-11T04:51:58;43.15;;;30.40;;
21503;SDS011;10913;51.992;9.228;2023-02-11T04:54:24;46.90;;;31.40;;
21503;SDS011;10913;51.992;9.228;2023-02-11T04:56:49;54.72;;;33.85;;
21503;SDS011;10913;51.992;9.228;2023-02-11T04:59:15;45.80;;;30.55;;
21503;SDS011;10913;51.992;9.228;2023-02-11T05:01:40;53.83;;;35.05;;
21503;SDS011;10913;51.992;9.228;2023-02-11T05:04:05;53.92;;;34.72;;
21503;SDS011;10913;51.992;9.228;2023-02-11T05:06:31;53.17;;;33.30;;
21503;SDS011;10913;51.992;9.228;2023-02-11T05:08:56;49.85;;;32.55;;
21503;SDS011;10913;51.992;9.228;2023-02-11T05:11:22;67.35;;;39.97;;
21503;SDS011;10913;51.992;9.228;2023-02-11T05:13:49;59.38;;;36.08;;
21503;SDS011;10913;51.992;9.228;2023-02-11T05:16:14;67.93;;;40.17;;
21503;SDS011;10913;51.992;9.228;2023-02-11T05:18:41;64.10;;;38.65;;
21503;SDS011;10913;51.992;9.228;2023-02-11T05:21:08;67.30;;;40.25;;
21503;SDS011;10913;51.992;9.228;2023-02-11T05:23:34;65.25;;;39.97;;
21503;SDS011;10913;51.992;9.228;2023-02-11T05:26:01;66.60;;;39.35;;
21503;SDS011;10913;51.992;9.228;2023-02-11T05:28:27;71.15;;;41.50;;
21503;SDS011;10913;51.992;9.228;2023-02-11T05:30:52;71.78;;;42.22;;
21503;SDS011;10913;51.992;9.228;2023-02-11T05:33:18;82.00;;;45.40;;
21503;SDS011;10913;51.992;9.228;2023-02-11T05:35:43;78.07;;;44.25;;
21503;SDS011;10913;51.992;9.228;2023-02-11T05:38:09;81.88;;;46.30;;
21503;SDS011;10913;51.992;9.228;2023-02-11T05:40:34;71.22;;;42.78;;
21503;SDS011;10913;51.992;9.228;2023-02-11T05:43:00;86.28;;;49.03;;
21503;SDS011;10913;51.992;9.228;2023-02-11T05:45:25;87.70;;;48.15;;
21503;SDS011;10913;51.992;9.228;2023-02-11T05:47:51;79.60;;;45.90;;
21503;SDS011;10913;51.992;9.228;2023-02-11T05:50:16;75.10;;;43.05;;
21503;SDS011;10913;51.992;9.228;2023-02-11T05:52:41;79.15;;;47.25;;
21503;SDS011;10913;51.992;9.228;2023-02-11T05:55:07;89.97;;;49.88;;
21503;SDS011;10913;51.992;9.228;2023-02-11T05:57:32;76.60;;;45.08;;
21503;SDS011;10913;51.992;9.228;2023-02-11T05:59:58;81.22;;;47.80;;
21503;SDS011;10913;51.992;9.228;2023-02-11T06:02:23;81.00;;;46.72;;
21503;SDS011;10913;51.992;9.228;2023-02-11T06:04:49;84.00;;;48.25;;
21503;SDS011;10913;51.992;9.228;2023-02-11T06:07:14;82.47;;;48.25;;
21503;SDS011;10913;51.992;9.228;2023-02-11T06:09:39;86.57;;;49.95;;
21503;SDS011;10913;51.992;9.228;2023-02-11T06:12:05;73.22;;;44.60;;
21503;SDS011;10913;51.992;9.228;2023-02-11T06:14:34;84.20;;;48.58;;
21503;SDS011;10913;51.992;9.228;2023-02-11T06:17:00;80.35;;;46.03;;
21503;SDS011;10913;51.992;9.228;2023-02-11T06:19:25;90.97;;;50.28;;
21503;SDS011;10913;51.992;9.228;2023-02-11T06:21:51;75.65;;;44.42;;
21503;SDS011;10913;51.992;9.228;2023-02-11T06:24:16;86.72;;;49.67;;
21503;SDS011;10913;51.992;9.228;2023-02-11T06:26:41;81.93;;;47.60;;
21503;SDS011;10913;51.992;9.228;2023-02-11T06:29:07;85.45;;;47.70;;
21503;SDS011;10913;51.992;9.228;2023-02-11T06:31:33;81.20;;;45.13;;
21503;SDS011;10913;51.992;9.228;2023-02-11T06:34:01;75.85;;;44.55;;
21503;SDS011;10913;51.992;9.228;2023-02-11T06:36:27;77.03;;;45.13;;
21503;SDS011;10913;51.992;9.228;2023-02-11T06:38:52;94.53;;;52.55;;
21503;SDS011;10913;51.992;9.228;2023-02-11T06:41:18;77.13;;;45.17;;
21503;SDS011;10913;51.992;9.228;2023-02-11T06:43:44;79.25;;;46.22;;
21503;SDS011;10913;51.992;9.228;2023-02-11T06:46:09;84.47;;;48.53;;
21503;SDS011;10913;51.992;9.228;2023-02-11T06:48:35;86.97;;;49.65;;
21503;SDS011;10913;51.992;9.228;2023-02-11T06:51:04;85.32;;;48.42;;
21503;SDS011;10913;51.992;9.228;2023-02-11T06:53:33;86.95;;;48.30;;
21503;SDS011;10913;51.992;9.228;2023-02-11T06:56:04;90.85;;;50.95;;
21503;SDS011;10913;51.992;9.228;2023-02-11T06:58:31;82.53;;;46.50;;
21503;SDS011;10913;51.992;9.228;2023-02-11T07:00:56;84.25;;;47.90;;
21503;SDS011;10913;51.992;9.228;2023-02-11T07:03:22;86.47;;;47.88;;
21503;SDS011;10913;51.992;9.228;2023-02-11T07:05:47;81.18;;;46.05;;
21503;SDS011;10913;51.992;9.228;2023-02-11T07:08:13;89.25;;;50.42;;
21503;SDS011;10913;51.992;9.228;2023-02-11T07:10:38;84.95;;;49.45;;
21503;SDS011;10913;51.992;9.228;2023-02-11T07:13:04;83.85;;;48.58;;
21503;SDS011;10913;51.992;9.228;2023-02-11T07:15:29;82.63;;;47.47;;
21503;SDS011;10913;51.992;9.228;2023-02-11T07:17:54;84.47;;;48.25;;
21503;SDS011;10913;51.992;9.228;2023-02-11T07:20:20;81.03;;;44.40;;
21503;SDS011;10913;51.992;9.228;2023-02-11T07:22:45;88.60;;;49.80;;
21503;SDS011;10913;51.992;9.228;2023-02-11T07:25:10;83.18;;;47.75;;
21503;SDS011;10913;51.992;9.228;2023-02-11T07:27:36;83.75;;;48.13;;
21503;SDS011;10913;51.992;9.228;2023-02-11T07:30:01;88.68;;;48.42;;
21503;SDS011;10913;51.992;9.228;2023-02-11T07:32:27;91.93;;;50.28;;
21503;SDS011;10913;51.992;9.228;2023-02-11T07:34:52;81.80;;;45.80;;
21503;SDS011;10913;51.992;9.228;2023-02-11T07:37:18;80.78;;;43.63;;
21503;SDS011;10913;51.992;9.228;2023-02-11T07:39:43;90.32;;;50.00;;
21503;SDS011;10913;51.992;9.228;2023-02-11T07:42:09;79.53;;;44.92;;
21503;SDS011;10913;51.992;9.228;2023-02-11T07:44:34;76.47;;;43.67;;
21503;SDS011;10913;51.992;9.228;2023-02-11T07:47:00;80.18;;;44.75;;
21503;SDS011;10913;51.992;9.228;2023-02-11T07:49:26;80.97;;;44.75;;
21503;SDS011;10913;51.992;9.228;2023-02-11T07:51:52;91.60;;;48.95;;
21503;SDS011;10913;51.992;9.228;2023-02-11T07:54:17;77.35;;;42.97;;
21503;SDS011;10913;51.992;9.228;2023-02-11T07:56:42;86.80;;;48.60;;
21503;SDS011;10913;51.992;9.228;2023-02-11T07:59:09;80.45;;;44.05;;
21503;SDS011;10913;51.992;9.228;2023-02-11T08:01:35;88.93;;;47.15;;
21503;SDS011;10913;51.992;9.228;2023-02-11T08:04:00;93.88;;;51.45;;
21503;SDS011;10913;51.992;9.228;2023-02-11T08:06:27;79.05;;;46.03;;
21503;SDS011;10913;51.992;9.228;2023-02-11T08:08:57;81.60;;;46.13;;
21503;SDS011;10913;51.992;9.228;2023-02-11T08:11:32;89.32;;;49.85;;
21503;SDS011;10913;51.992;9.228;2023-02-11T08:14:25;95.75;;;51.35;;
21503;SDS011;10913;51.992;9.228;2023-02-11T08:16:51;95.45;;;50.78;;
21503;SDS011;10913;51.992;9.228;2023-02-11T08:19:16;104.63;;;52.42;;
21503;SDS011;10913;51.992;9.228;2023-02-11T08:21:42;78.20;;;44.92;;
21503;SDS011;10913;51.992;9.228;2023-02-11T08:24:08;82.72;;;45.85;;
21503;SDS011;10913;51.992;9.228;2023-02-11T08:26:34;88.65;;;48.65;;
21503;SDS011;10913;51.992;9.228;2023-02-11T08:29:00;86.13;;;47.58;;
21503;SDS011;10913;51.992;9.228;2023-02-11T08:31:31;89.63;;;47.80;;
21503;SDS011;10913;51.992;9.228;2023-02-11T08:33:58;87.13;;;48.10;;
21503;SDS011;10913;51.992;9.228;2023-02-11T08:36:28;93.82;;;49.55;;
21503;SDS011;10913;51.992;9.228;2023-02-11T08:38:55;81.55;;;45.72;;
21503;SDS011;10913;51.992;9.228;2023-02-11T08:41:23;80.00;;;44.67;;
21503;SDS011;10913;51.992;9.228;2023-02-11T08:43:49;83.40;;;46.42;;
21503;SDS011;10913;51.992;9.228;2023-02-11T08:46:15;87.90;;;47.17;;
21503;SDS011;10913;51.992;9.228;2023-02-11T08:48:42;84.43;;;46.00;;
21503;SDS011;10913;51.992;9.228;2023-02-11T08:51:12;75.55;;;42.53;;
21503;SDS011;10913;51.992;9.228;2023-02-11T08:53:41;86.65;;;45.78;;
21503;SDS011;10913;51.992;9.228;2023-02-11T08:56:07;83.78;;;47.25;;
21503;SDS011;10913;51.992;9.228;2023-02-11T08:58:34;81.10;;;44.17;;
21503;SDS011;10913;51.992;9.228;2023-02-11T09:00:59;77.80;;;43.60;;
21503;SDS011;10913;51.992;9.228;2023-02-11T09:03:25;80.82;;;45.28;;
21503;SDS011;10913;51.992;9.228;2023-02-11T09:05:50;80.43;;;43.40;;
21503;SDS011;10913;51.992;9.228;2023-02-11T09:08:17;79.28;;;43.55;;
21503;SDS011;10913;51.992;9.228;2023-02-11T09:10:43;77.53;;;43.35;;
21503;SDS011;10913;51.992;9.228;2023-02-11T09:13:08;75.35;;;40.88;;
21503;SDS011;10913;51.992;9.228;2023-02-11T09:15:34;82.32;;;43.90;;
21503;SDS011;10913;51.992;9.228;2023-02-11T09:18:00;70.80;;;41.35;;
21503;SDS011;10913;51.992;9.228;2023-02-11T09:20:26;78.03;;;43.42;;
21503;SDS011;10913;51.992;9.228;2023-02-11T09:22:52;73.20;;;40.40;;
21503;SDS011;10913;51.992;9.228;2023-02-11T09:25:19;82.38;;;43.33;;
21503;SDS011;10913;51.992;9.228;2023-02-11T09:27:44;74.00;;;41.78;;
21503;SDS011;10913;51.992;9.228;2023-02-11T09:30:10;71.25;;;40.00;;
21503;SDS011;10913;51.992;9.228;2023-02-11T09:32:36;86.60;;;47.58;;
21503;SDS011;10913;51.992;9.228;2023-02-11T09:35:01;73.85;;;41.22;;
21503;SDS011;10913;51.992;9.228;2023-02-11T09:37:27;69.60;;;39.17;;
21503;SDS011;10913;51.992;9.228;2023-02-11T09:39:52;73.15;;;39.75;;
21503;SDS011;10913;51.992;9.228;2023-02-11T09:42:23;80.38;;;45.28;;
21503;SDS011;10913;51.992;9.228;2023-02-11T09:44:55;77.65;;;39.70;;
21503;SDS011;10913;51.992;9.228;2023-02-11T09:47:29;77.13;;;42.72;;
21503;SDS011;10913;51.992;9.228;2023-02-11T09:50:00;75.65;;;42.15;;
21503;SDS011;10913;51.992;9.228;2023-02-11T09:54:57;74.22;;;40.90;;
21503;SDS011;10913;51.992;9.228;2023-02-11T09:57:25;91.82;;;47.78;;
21503;SDS011;10913;51.992;9.228;2023-02-11T09:59:56;77.53;;;42.10;;
21503;SDS011;10913;51.992;9.228;2023-02-11T10:02:23;80.70;;;42.72;;
21503;SDS011;10913;51.992;9.228;2023-02-11T10:05:19;78.03;;;43.17;;
21503;SDS011;10913;51.992;9.228;2023-02-11T10:10:33;79.60;;;42.35;;
21503;SDS011;10913;51.992;9.228;2023-02-11T10:16:21;77.35;;;42.33;;
21503;SDS011;10913;51.992;9.228;2023-02-11T10:19:32;84.28;;;44.65;;
21503;SDS011;10913;51.992;9.228;2023-02-11T10:22:09;91.13;;;45.97;;
21503;SDS011;10913;51.992;9.228;2023-02-11T10:24:36;79.97;;;42.80;;
21503;SDS011;10913;51.992;9.228;2023-02-11T10:27:16;95.85;;;48.25;;
21503;SDS011;10913;51.992;9.228;2023-02-11T10:29:52;78.47;;;43.75;;
21503;SDS011;10913;51.992;9.228;2023-02-11T10:32:25;81.15;;;42.85;;
21503;SDS011;10913;51.992;9.228;2023-02-11T10:35:18;71.35;;;39.58;;
21503;SDS011;10913;51.992;9.228;2023-02-11T10:37:46;86.95;;;44.65;;
21503;SDS011;10913;51.992;9.228;2023-02-11T10:40:15;64.43;;;35.75;;
21503;SDS011;10913;51.992;9.228;2023-02-11T10:42:44;74.30;;;37.70;;
21503;SDS011;10913;51.992;9.228;2023-02-11T10:45:18;67.03;;;36.80;;
21503;SDS011;10913;51.992;9.228;2023-02-11T10:47:49;67.25;;;35.25;;
21503;SDS011;10913;51.992;9.228;2023-02-11T10:50:19;67.07;;;37.25;;
21503;SDS011;10913;51.992;9.228;2023-02-11T10:53:35;60.00;;;34.40;;
21503;SDS011;10913;51.992;9.228;2023-02-11T10:55:55;69.18;;;38.40;;
21503;SDS011;10913;51.992;9.228;2023-02-11T10:58:22;67.68;;;37.55;;
21503;SDS011;10913;51.992;9.228;2023-02-11T11:01:01;62.53;;;34.22;;
21503;SDS011;10913;51.992;9.228;2023-02-11T11:03:30;58.03;;;34.28;;
21503;SDS011;10913;51.992;9.228;2023-02-11T11:06:01;62.10;;;36.33;;
21503;SDS011;10913;51.992;9.228;2023-02-11T11:08:47;53.67;;;31.42;;
21503;SDS011;10913;51.992;9.228;2023-02-11T11:11:15;52.60;;;31.48;;
21503;SDS011;10913;51.992;9.228;2023-02-11T11:18:49;60.85;;;34.67;;
21503;SDS011;10913;51.992;9.228;2023-02-11T11:21:23;58.75;;;35.00;;
21503;SDS011;10913;51.992;9.228;2023-02-11T11:23:54;54.35;;;31.02;;
21503;SDS011;10913;51.992;9.228;2023-02-11T11:26:23;51.28;;;30.30;;
21503;SDS011;10913;51.992;9.228;2023-02-11T11:28:52;56.38;;;33.58;;
21503;SDS011;10913;51.992;9.228;2023-02-11T11:31:22;51.50;;;31.88;;
21503;SDS011;10913;51.992;9.228;2023-02-11T11:33:58;48.97;;;30.30;;
21503;SDS011;10913;51.992;9.228;2023-02-11T11:36:31;59.75;;;35.58;;
21503;SDS011;10913;51.992;9.228;2023-02-11T11:39:00;63.28;;;37.28;;
21503;SDS011;10913;51.992;9.228;2023-02-11T11:41:39;57.33;;;33.33;;
21503;SDS011;10913;51.992;9.228;2023-02-11T11:44:25;55.95;;;32.08;;
21503;SDS011;10913;51.992;9.228;2023-02-11T11:52:44;57.17;;;32.08;;
21503;SDS011;10913;51.992;9.228;2023-02-11T11:55:17;58.00;;;34.60;;
21503;SDS011;10913;51.992;9.228;2023-02-11T11:57:45;62.22;;;34.60;;
21503;SDS011;10913;51.992;9.228;2023-02-11T12:00:15;59.67;;;35.22;;
21503;SDS011;10913;51.992;9.228;2023-02-11T12:03:03;54.65;;;32.55;;
21503;SDS011;10913;51.992;9.228;2023-02-11T12:11:22;52.78;;;29.85;;
21503;SDS011;10913;51.992;9.228;2023-02-11T12:13:59;53.25;;;32.28;;
21503;SDS011;10913;51.992;9.228;2023-02-11T12:22:27;54.60;;;32.38;;
21503;SDS011;10913;51.992;9.228;2023-02-11T12:39:42;47.47;;;28.33;;
21503;SDS011;10913;51.992;9.228;2023-02-11T12:45:28;46.97;;;27.85;;
21503;SDS011;10913;51.992;9.228;2023-02-11T12:59:32;43.30;;;26.55;;
21503;SDS011;10913;51.992;9.228;2023-02-11T13:08:16;45.40;;;28.42;;
21503;SDS011;10913;51.992;9.228;2023-02-11T13:10:42;49.92;;;30.10;;
21503;SDS011;10913;51.992;9.228;2023-02-11T13:15:45;46.22;;;28.67;;
21503;SDS011;10913;51.992;9.228;2023-02-11T13:23:41;44.35;;;27.08;;
21503;SDS011;10913;51.992;9.228;2023-02-11T13:26:18;41.00;;;25.63;;
21503;SDS011;10913;51.992;9.228;2023-02-11T13:31:39;44.53;;;27.00;;
21503;SDS011;10913;51.992;9.228;2023-02-11T13:36:55;46.25;;;26.85;;
21503;SDS011;10913;51.992;9.228;2023-02-11T13:39:21;44.53;;;27.52;;
21503;SDS011;10913;51.992;9.228;2023-02-11T13:41:47;47.00;;;27.38;;
21503;SDS011;10913;51.992;9.228;2023-02-11T13:49:40;47.88;;;27.55;;
21503;SDS011;10913;51.992;9.228;2023-02-11T13:55:04;43.55;;;26.33;;
21503;SDS011;10913;51.992;9.228;2023-02-11T13:57:39;51.17;;;28.90;;
21503;SDS011;10913;51.992;9.228;2023-02-11T14:06:15;45.70;;;27.38;;
21503;SDS011;10913;51.992;9.228;2023-02-11T14:27:12;53.60;;;30.38;;
21503;SDS011;10913;51.992;9.228;2023-02-11T14:38:06;48.05;;;27.60;;
21503;SDS011;10913;51.992;9.228;2023-02-11T14:43:30;45.65;;;26.27;;
21503;SDS011;10913;51.992;9.228;2023-02-11T14:46:01;47.25;;;28.52;;
21503;SDS011;10913;51.992;9.228;2023-02-11T14:48:28;44.63;;;27.23;;
21503;SDS011;10913;51.992;9.228;2023-02-11T14:53:33;52.75;;;27.83;;
21503;SDS011;10913;51.992;9.228;2023-02-11T14:56:00;42.97;;;26.33;;
21503;SDS011;10913;51.992;9.228;2023-02-11T14:58:26;43.05;;;25.80;;
21503;SDS011;10913;51.992;9.228;2023-02-11T15:00:58;52.22;;;29.02;;
21503;SDS011;10913;51.992;9.228;2023-02-11T15:06:17;47.83;;;28.45;;
21503;SDS011;10913;51.992;9.228;2023-02-11T15:08:52;53.72;;;32.00;;
21503;SDS011;10913;51.992;9.228;2023-02-11T15:11:22;51.55;;;29.05;;
21503;SDS011;10913;51.992;9.228;2023-02-11T15:13:49;51.42;;;29.20;;
21503;SDS011;10913;51.992;9.228;2023-02-11T15:16:17;47.55;;;27.30;;
21503;SDS011;10913;51.992;9.228;2023-02-11T15:18:49;54.20;;;31.02;;
21503;SDS011;10913;51.992;9.228;2023-02-11T15:21:22;45.95;;;28.13;;
21503;SDS011;10913;51.992;9.228;2023-02-11T15:23:54;52.75;;;30.70;;
21503;SDS011;10913;51.992;9.228;2023-02-11T15:26:38;49.85;;;28.88;;
21503;SDS011;10913;51.992;9.228;2023-02-11T15:29:13;50.58;;;28.92;;
21503;SDS011;10913;51.992;9.228;2023-02-11T15:31:40;48.03;;;27.98;;
21503;SDS011;10913;51.992;9.228;2023-02-11T15:34:07;56.35;;;31.05;;
21503;SDS011;10913;51.992;9.228;2023-02-11T15:36:33;50.35;;;30.25;;
21503;SDS011;10913;51.992;9.228;2023-02-11T15:39:27;53.78;;;31.65;;
21503;SDS011;10913;51.992;9.228;2023-02-11T15:47:41;52.03;;;29.88;;
21503;SDS011;10913;51.992;9.228;2023-02-11T15:50:19;52.60;;;29.30;;
21503;SDS011;10913;51.992;9.228;2023-02-11T15:52:54;48.88;;;29.52;;
21503;SDS011;10913;51.992;9.228;2023-02-11T15:55:22;51.40;;;30.25;;
21503;SDS011;10913;51.992;9.228;2023-02-11T15:57:51;49.72;;;27.90;;
21503;SDS011;10913;51.992;9.228;2023-02-11T16:00:20;48.22;;;29.17;;
21503;SDS011;10913;51.992;9.228;2023-02-11T16:02:48;43.28;;;26.42;;
21503;SDS011;10913;51.992;9.228;2023-02-11T16:05:28;45.30;;;27.90;;
21503;SDS011;10913;51.992;9.228;2023-02-11T16:07:54;51.97;;;29.42;;
21503;SDS011;10913;51.992;9.228;2023-02-11T16:17:58;44.72;;;27.88;;
21503;SDS011;10913;51.992;9.228;2023-02-11T16:20:28;49.10;;;29.23;;
21503;SDS011;10913;51.992;9.228;2023-02-11T16:22:54;48.25;;;29.10;;
21503;SDS011;10913;51.992;9.228;2023-02-11T16:25:22;46.58;;;28.33;;
21503;SDS011;10913;51.992;9.228;2023-02-11T16:27:48;49.67;;;29.80;;
21503;SDS011;10913;51.992;9.228;2023-02-11T16:30:32;51.55;;;30.23;;
21503;SDS011;10913;51.992;9.228;2023-02-11T16:33:01;50.55;;;30.30;;
21503;SDS011;10913;51.992;9.228;2023-02-11T16:35:28;49.17;;;30.08;;
21503;SDS011;10913;51.992;9.228;2023-02-11T16:37:53;52.88;;;30.35;;
21503;SDS011;10913;51.992;9.228;2023-02-11T16:40:19;54.67;;;31.17;;
21503;SDS011;10913;51.992;9.228;2023-02-11T16:42:45;50.17;;;31.42;;
21503;SDS011;10913;51.992;9.228;2023-02-11T16:45:10;61.50;;;35.03;;
21503;SDS011;10913;51.992;9.228;2023-02-11T16:47:36;60.85;;;33.17;;
21503;SDS011;10913;51.992;9.228;2023-02-11T16:50:05;52.50;;;31.63;;
21503;SDS011;10913;51.992;9.228;2023-02-11T16:52:33;52.28;;;32.47;;
21503;SDS011;10913;51.992;9.228;2023-02-11T16:55:00;61.80;;;37.08;;
21503;SDS011;10913;51.992;9.228;2023-02-11T16:57:25;54.13;;;31.52;;
21503;SDS011;10913;51.992;9.228;2023-02-11T16:59:51;47.10;;;27.20;;
21503;SDS011;10913;51.992;9.228;2023-02-11T17:04:44;45.15;;;28.00;;
21503;SDS011;10913;51.992;9.228;2023-02-11T17:07:09;47.08;;;28.35;;
21503;SDS011;10913;51.992;9.228;2023-02-11T17:09:35;45.67;;;28.67;;
21503;SDS011;10913;51.992;9.228;2023-02-11T17:12:00;49.28;;;29.67;;
21503;SDS011;10913;51.992;9.228;2023-02-11T17:14:26;50.70;;;28.38;;
21503;SDS011;10913;51.992;9.228;2023-02-11T17:16:51;48.10;;;28.38;;
21503;SDS011;10913;51.992;9.228;2023-02-11T17:19:18;50.00;;;29.20;;
21503;SDS011;10913;51.992;9.228;2023-02-11T17:21:48;45.08;;;27.48;;
21503;SDS011;10913;51.992;9.228;2023-02-11T17:24:16;46.92;;;28.55;;
21503;SDS011;10913;51.992;9.228;2023-02-11T17:26:42;47.63;;;28.95;;
21503;SDS011;10913;51.992;9.228;2023-02-11T17:29:10;48.28;;;28.58;;
21503;SDS011;10913;51.992;9.228;2023-02-11T17:31:37;46.35;;;27.70;;
21503;SDS011;10913;51.992;9.228;2023-02-11T17:34:03;51.00;;;29.20;;